Time;durP1;ratioP1;P1;durP2;ratioP2;P2;SDS_P1;SDS_P2;PMS_P1;PMS_P2;Temp;Humidity;BMP_temperature;BMP_pressure;BME280_temperature;BME280_humidity;BME280_pressure;Samples;Min_cycle;Max_cycle;Signal;HPM_P1;HPM_P2
2021/12/11 00:02:29;;;;;;;13.80;8.07;;;5.60;91.00;;;;;;5047839;28;20054;-78
2021/12/11 00:04:57;;;;;;;19.20;9.43;;;5.60;91.00;;;;;;5042749;28;20029;-78
2021/12/11 00:07:26;;;;;;;13.43;8.30;;;5.60;90.90;;;;;;5047886;28;20116;-78
2021/12/11 00:10:05;;;;;;;17.35;9.05;;;5.60;91.30;;;;;;5037400;28;20029;-78
2021/12/11 00:12:35;;;;;;;17.80;9.75;;;5.60;91.10;;;;;;5047036;28;20032;-78
2021/12/11 00:15:08;;;;;;;17.75;9.32;;;5.60;91.10;;;;;;5054603;28;20040;-78
2021/12/11 00:17:34;;;;;;;;;;;5.60;91.10;;;;;;5036824;28;20022;-78
2021/12/11 00:20:03;;;;;;;14.00;8.40;;;5.60;91.10;;;;;;5036482;28;20454;-78
2021/12/11 00:22:31;;;;;;;16.77;9.20;;;5.70;91.10;;;;;;5036087;28;20484;-78
2021/12/11 00:25:05;;;;;;;20.48;9.52;;;5.60;91.00;;;;;;5036076;28;20498;-78
2021/12/11 00:27:33;;;;;;;13.70;9.15;;;5.60;91.00;;;;;;5036349;28;20033;-78
2021/12/11 00:30:00;;;;;;;18.33;9.88;;;5.60;91.00;;;;;;5036508;28;20533;-78
2021/12/11 00:32:29;;;;;;;21.10;9.38;;;5.60;91.10;;;;;;5036292;28;20122;-78
2021/12/11 00:35:05;;;;;;;16.10;8.75;;;5.60;91.10;;;;;;5036412;28;20056;-78
2021/12/11 00:37:32;;;;;;;14.50;9.23;;;5.60;91.10;;;;;;5042093;28;20030;-78
2021/12/11 00:40:15;;;;;;;15.52;8.98;;;5.60;91.10;;;;;;5051859;28;20060;-78
2021/12/11 00:42:47;;;;;;;16.13;9.32;;;5.60;91.10;;;;;;5052461;28;20044;-77
2021/12/11 00:45:17;;;;;;;13.55;8.10;;;5.60;91.10;;;;;;5056409;28;20029;-78
2021/12/11 00:47:54;;;;;;;16.02;9.65;;;5.60;91.10;;;;;;5045706;28;20029;-78
2021/12/11 00:50:25;;;;;;;16.58;8.55;;;5.60;91.10;;;;;;5036299;28;20029;-77
2021/12/11 00:53:22;;;;;;;12.40;8.35;;;5.60;91.10;;;;;;5044754;28;20087;-77
2021/12/11 00:55:51;;;;;;;21.80;9.18;;;5.60;91.00;;;;;;5035696;28;20523;-77
2021/12/11 00:58:32;;;;;;;17.85;8.77;;;5.60;91.00;;;;;;5049590;28;20067;-78
2021/12/11 01:01:06;;;;;;;19.30;9.13;;;5.60;91.00;;;;;;5026697;28;20063;-77
2021/12/11 01:04:00;;;;;;;13.00;8.20;;;5.60;91.00;;;;;;5046830;28;20052;-78
2021/12/11 01:06:40;;;;;;;15.93;8.60;;;5.60;91.00;;;;;;5050007;28;20049;-78
2021/12/11 01:11:50;;;;;;;14.32;8.48;;;5.60;91.00;;;;;;5588891;22;20065;-78
2021/12/11 01:14:24;;;;;;;11.93;7.80;;;5.60;91.10;;;;;;5049390;28;20034;-78
2021/12/11 01:17:00;;;;;;;14.38;7.80;;;5.60;91.10;;;;;;5050221;28;20029;-78
2021/12/11 01:19:28;;;;;;;14.40;7.97;;;5.60;91.10;;;;;;5037069;28;20052;-78
2021/12/11 01:21:57;;;;;;;12.10;8.27;;;5.60;91.20;;;;;;5038431;28;20042;-78
2021/12/11 01:24:41;;;;;;;14.93;9.60;;;5.50;91.10;;;;;;5052128;28;20416;-78
2021/12/11 01:27:08;;;;;;;14.90;8.95;;;5.50;91.10;;;;;;5052819;28;20396;-78
2021/12/11 01:29:34;;;;;;;19.00;10.25;;;5.50;91.20;;;;;;5035685;28;20032;-79
2021/12/11 01:32:01;;;;;;;18.27;10.32;;;5.50;91.20;;;;;;5037892;28;20033;-78
2021/12/11 01:34:28;;;;;;;17.98;10.23;;;5.50;91.20;;;;;;5038595;28;20436;-79
2021/12/11 01:36:55;;;;;;;19.38;10.30;;;5.50;91.20;;;;;;5040521;28;20048;-79
2021/12/11 01:39:31;;;;;;;22.45;9.88;;;5.50;91.30;;;;;;5072535;28;20097;-80
2021/12/11 01:41:58;;;;;;;15.30;10.57;;;5.50;91.30;;;;;;5064473;28;20125;-80
2021/12/11 01:44:31;;;;;;;16.60;10.23;;;5.50;91.30;;;;;;5055075;28;20043;-79
2021/12/11 01:47:04;;;;;;;18.65;10.10;;;5.50;91.30;;;;;;5039831;28;20108;-79
2021/12/11 01:49:31;;;;;;;16.55;9.82;;;5.50;91.20;;;;;;5052854;28;20033;-80
2021/12/11 01:52:06;;;;;;;18.55;9.90;;;5.50;91.20;;;;;;5041087;28;20108;-79
2021/12/11 01:54:37;;;;;;;15.82;10.13;;;5.50;91.30;;;;;;5037126;28;20460;-79
2021/12/11 01:57:10;;;;;;;18.80;10.80;;;5.50;91.50;;;;;;5040543;28;20106;-78
2021/12/11 01:59:40;;;;;;;20.02;10.65;;;5.60;91.30;;;;;;5044818;28;20033;-79
2021/12/11 02:02:14;;;;;;;16.58;10.43;;;5.60;91.30;;;;;;5036320;28;20049;-79
2021/12/11 02:04:45;;;;;;;17.55;10.38;;;5.50;91.30;;;;;;5035922;28;20534;-78
2021/12/11 02:07:19;;;;;;;18.13;10.50;;;5.60;91.30;;;;;;5041778;28;20064;-79
2021/12/11 02:09:51;;;;;;;;;;;5.50;91.20;;;;;;5054888;28;20037;-79
2021/12/11 02:12:24;;;;;;;16.70;9.35;;;5.50;91.20;;;;;;5040503;28;19925;-80
2021/12/11 02:14:52;;;;;;;15.27;8.88;;;5.50;91.20;;;;;;5054361;28;20021;-79
2021/12/11 02:17:18;;;;;;;15.38;8.93;;;5.50;91.20;;;;;;5042018;28;20029;-79
2021/12/11 02:19:45;;;;;;;16.95;9.18;;;5.50;91.20;;;;;;5033975;28;20044;-79
2021/12/11 02:22:15;;;;;;;13.68;8.80;;;5.50;91.20;;;;;;5041004;28;20484;-79
2021/12/11 02:24:59;;;;;;;15.02;8.95;;;5.50;91.30;;;;;;5050450;28;20025;-79
2021/12/11 02:27:28;;;;;;;;;;;5.50;91.30;;;;;;5042086;28;20112;-79
2021/12/11 02:29:53;;;;;;;12.45;8.63;;;5.50;91.40;;;;;;5053825;28;19920;-79
2021/12/11 02:32:32;;;;;;;16.70;9.07;;;5.50;91.30;;;;;;5053907;28;20017;-80
2021/12/11 02:35:15;;;;;;;14.68;8.95;;;5.40;91.30;;;;;;5047129;28;20422;-77
2021/12/11 02:37:48;;;;;;;12.18;8.45;;;5.40;91.40;;;;;;5053286;28;20072;-78
2021/12/11 02:40:23;;;;;;;15.68;8.85;;;5.30;91.50;;;;;;5058587;28;20041;-78
2021/12/11 02:43:15;;;;;;;14.80;8.85;;;5.40;91.60;;;;;;5034779;28;20029;-78
2021/12/11 02:46:07;;;;;;;11.85;8.23;;;5.40;91.60;;;;;;5041817;28;20025;-78
2021/12/11 02:48:38;;;;;;;13.27;8.77;;;5.30;91.60;;;;;;5049896;28;20531;-77
2021/12/11 02:51:18;;;;;;;14.23;8.77;;;5.30;91.60;;;;;;5039145;28;20034;-78
2021/12/11 02:54:13;;;;;;;18.33;9.73;;;5.30;91.60;;;;;;5040682;28;20041;-78
2021/12/11 02:56:45;;;;;;;15.63;9.55;;;5.30;91.60;;;;;;5026080;28;20045;-78
2021/12/11 02:59:15;;;;;;;16.50;9.48;;;5.30;91.60;;;;;;5023060;28;20029;-78
2021/12/11 03:02:09;;;;;;;15.07;9.98;;;5.20;91.70;;;;;;5036681;28;20045;-77
2021/12/11 03:04:39;;;;;;;14.85;9.27;;;5.20;91.70;;;;;;5051662;28;20100;-78
2021/12/11 03:07:09;;;;;;;19.98;11.25;;;5.20;91.70;;;;;;5047226;28;20543;-78
2021/12/11 03:09:40;;;;;;;13.52;9.25;;;5.20;91.70;;;;;;5034343;28;20404;-78
2021/12/11 03:12:09;;;;;;;14.60;9.95;;;5.20;91.70;;;;;;5034452;28;20128;-78
2021/12/11 03:14:35;;;;;;;16.25;9.32;;;5.20;91.80;;;;;;5048705;28;20021;-78
2021/12/11 03:17:01;;;;;;;16.58;10.05;;;5.20;91.80;;;;;;5043380;28;20025;-78
2021/12/11 03:19:31;;;;;;;16.20;10.82;;;5.10;91.70;;;;;;5038999;28;20026;-77
2021/12/11 03:21:59;;;;;;;15.10;9.98;;;5.20;91.70;;;;;;5048220;28;20030;-77
2021/12/11 03:24:26;;;;;;;17.70;10.60;;;5.20;91.70;;;;;;5033574;28;20032;-77
2021/12/11 03:26:53;;;;;;;18.40;10.35;;;5.20;91.70;;;;;;5038578;28;20024;-77
2021/12/11 03:29:20;;;;;;;15.30;9.93;;;5.20;91.70;;;;;;5052331;28;20029;-76
2021/12/11 03:31:46;;;;;;;14.18;9.52;;;5.20;91.80;;;;;;5040702;28;20032;-76
2021/12/11 03:34:18;;;;;;;18.60;11.10;;;5.20;91.70;;;;;;5049783;28;20083;-76
2021/12/11 03:36:44;;;;;;;16.70;10.38;;;5.20;91.70;;;;;;5046023;28;20155;-75
2021/12/11 03:39:20;;;;;;;15.57;9.80;;;5.20;91.70;;;;;;5042513;28;20047;-76
2021/12/11 03:41:47;;;;;;;17.83;10.73;;;5.20;91.70;;;;;;5049439;28;20036;-76
2021/12/11 03:44:15;;;;;;;17.95;10.45;;;5.20;91.70;;;;;;5052024;28;20476;-76
2021/12/11 03:46:44;;;;;;;16.17;10.20;;;5.10;91.70;;;;;;5035712;28;20319;-76
2021/12/11 03:49:16;;;;;;;17.02;10.23;;;5.10;91.70;;;;;;5051051;28;20035;-76
2021/12/11 03:51:46;;;;;;;18.85;9.75;;;5.20;91.70;;;;;;5049918;28;20080;-76
2021/12/11 03:54:23;;;;;;;16.83;10.55;;;5.20;91.70;;;;;;5033422;28;20033;-76
2021/12/11 03:56:49;;;;;;;16.45;9.18;;;5.20;91.70;;;;;;5033718;28;20040;-76
2021/12/11 03:59:15;;;;;;;16.73;9.75;;;5.10;91.60;;;;;;5044393;28;20021;-76
2021/12/11 04:01:44;;;;;;;19.75;10.65;;;5.10;91.60;;;;;;5034112;28;20037;-76
2021/12/11 04:04:20;;;;;;;18.23;10.57;;;5.10;91.70;;;;;;5033956;28;20037;-76
2021/12/11 04:06:46;;;;;;;14.10;9.45;;;5.10;91.70;;;;;;5037497;28;20033;-76
2021/12/11 04:09:16;;;;;;;17.10;10.68;;;5.00;91.70;;;;;;5034016;28;20087;-77
2021/12/11 04:11:41;;;;;;;20.60;10.90;;;4.90;91.70;;;;;;5036303;28;20072;-76
2021/12/11 04:14:14;;;;;;;24.52;11.88;;;4.80;91.80;;;;;;5045869;28;20025;-77
2021/12/11 04:16:41;;;;;;;17.08;10.43;;;4.70;91.90;;;;;;5033372;28;20102;-76
2021/12/11 04:19:08;;;;;;;17.38;10.70;;;4.60;92.30;;;;;;5042540;28;20086;-76
2021/12/11 04:21:34;;;;;;;19.10;11.57;;;4.70;92.10;;;;;;5052191;28;20051;-76
2021/12/11 04:24:00;;;;;;;17.27;11.18;;;4.70;92.20;;;;;;5052352;28;20021;-76
2021/12/11 04:26:26;;;;;;;19.75;12.13;;;4.60;92.20;;;;;;5043414;28;20033;-76
2021/12/11 04:28:52;;;;;;;18.42;11.18;;;4.60;92.40;;;;;;5048407;28;20025;-76
2021/12/11 04:31:23;;;;;;;19.92;10.88;;;4.60;92.50;;;;;;5049602;28;20043;-76
2021/12/11 04:33:51;;;;;;;15.55;10.65;;;4.60;92.50;;;;;;5052396;28;20104;-76
2021/12/11 04:36:22;;;;;;;15.82;10.57;;;4.60;92.40;;;;;;5072735;28;20021;-75
2021/12/11 04:38:50;;;;;;;17.73;10.95;;;4.70;92.50;;;;;;5064706;28;20058;-76
2021/12/11 04:41:25;;;;;;;22.17;11.68;;;4.80;92.40;;;;;;5053761;28;20029;-76
2021/12/11 04:43:53;;;;;;;18.25;11.50;;;4.70;92.30;;;;;;5049872;28;20104;-77
2021/12/11 04:46:19;;;;;;;19.40;11.05;;;4.60;92.40;;;;;;5054263;28;20033;-76
2021/12/11 04:49:03;;;;;;;18.08;11.73;;;4.50;92.60;;;;;;5055311;28;20151;-77
2021/12/11 05:04:37;;;;;;;18.83;10.93;;;4.80;92.60;;;;;;5055491;28;20024;-78
2021/12/11 05:10:03;;;;;;;16.05;10.50;;;4.90;92.60;;;;;;5036231;28;20116;-78
2021/12/11 05:14:55;;;;;;;21.33;12.48;;;4.90;92.60;;;;;;5053494;28;20381;-78
2021/12/11 05:17:22;;;;;;;17.25;11.63;;;4.90;92.60;;;;;;5038338;28;20036;-78
2021/12/11 05:19:48;;;;;;;23.10;15.23;;;4.90;92.70;;;;;;5048540;28;20519;-77
2021/12/11 05:22:15;;;;;;;22.65;14.75;;;4.80;93.00;;;;;;5043533;28;20086;-78
2021/12/11 05:24:45;;;;;;;26.83;15.68;;;4.70;93.20;;;;;;5030511;28;20044;-78
2021/12/11 05:27:11;;;;;;;26.50;14.90;;;4.60;93.10;;;;;;5021703;28;20034;-78
2021/12/11 05:29:38;;;;;;;25.80;14.55;;;4.60;93.20;;;;;;5031425;28;20027;-77
2021/12/11 05:32:07;;;;;;;29.52;14.02;;;4.50;93.30;;;;;;5018568;28;20040;-77
2021/12/11 05:34:33;;;;;;;26.63;14.45;;;4.50;93.40;;;;;;5017539;28;20036;-76
2021/12/11 05:36:59;;;;;;;24.20;13.95;;;4.50;93.50;;;;;;5028541;28;20167;-76
2021/12/11 05:39:25;;;;;;;29.27;14.50;;;4.50;93.60;;;;;;5023756;28;20496;-76
2021/12/11 05:41:51;;;;;;;32.75;13.93;;;4.50;93.70;;;;;;5019324;28;20072;-77
2021/12/11 05:44:19;;;;;;;30.23;14.20;;;4.50;93.90;;;;;;5035177;28;20512;-77
2021/12/11 05:46:44;;;;;;;23.83;14.45;;;4.40;94.00;;;;;;5023204;28;20422;-77
2021/12/11 05:49:11;;;;;;;27.15;13.70;;;4.40;94.00;;;;;;5033135;28;20057;-77
2021/12/11 05:51:39;;;;;;;29.88;14.93;;;4.40;94.00;;;;;;5032808;28;20112;-76
2021/12/11 05:54:09;;;;;;;28.50;15.05;;;4.40;94.20;;;;;;5014266;28;20061;-77
2021/12/11 05:56:37;;;;;;;26.20;15.25;;;4.40;94.40;;;;;;5028445;28;20398;-78
2021/12/11 05:59:05;;;;;;;27.33;14.18;;;4.40;94.50;;;;;;5035174;28;20026;-78
2021/12/11 06:01:41;;;;;;;25.95;13.27;;;4.40;94.50;;;;;;5046254;28;20037;-78
2021/12/11 06:04:17;;;;;;;24.05;13.68;;;4.50;94.50;;;;;;5035321;28;20037;-78
2021/12/11 06:06:44;;;;;;;24.48;14.15;;;4.60;94.60;;;;;;5053345;28;20361;-77
2021/12/11 06:09:13;;;;;;;29.95;15.82;;;4.60;94.30;;;;;;5054223;28;20384;-78
2021/12/11 06:11:39;;;;;;;25.33;14.45;;;4.70;94.40;;;;;;5046247;28;20075;-77
2021/12/11 06:14:05;;;;;;;22.85;13.32;;;4.70;94.50;;;;;;5053953;28;20051;-77
2021/12/11 06:16:32;;;;;;;21.35;14.00;;;4.70;94.50;;;;;;5050461;28;20026;-77
2021/12/11 06:19:02;;;;;;;24.85;12.93;;;4.70;94.50;;;;;;5034976;28;20056;-76
2021/12/11 06:21:29;;;;;;;20.92;11.88;;;4.80;94.50;;;;;;5042579;28;20073;-77
2021/12/11 06:23:54;;;;;;;17.70;11.38;;;4.80;94.50;;;;;;5053638;28;20025;-75
2021/12/11 06:26:20;;;;;;;17.02;11.85;;;4.90;94.40;;;;;;5043651;28;20029;-76
2021/12/11 06:28:46;;;;;;;18.65;12.57;;;4.90;94.40;;;;;;5039595;28;20022;-76
2021/12/11 06:31:18;;;;;;;19.45;12.57;;;4.90;94.30;;;;;;5037805;28;20453;-76
2021/12/11 06:33:48;;;;;;;20.65;12.55;;;5.00;94.40;;;;;;5038479;28;20042;-76
2021/12/11 06:36:15;;;;;;;21.48;12.82;;;4.90;94.40;;;;;;5050325;28;20107;-77
2021/12/11 06:38:44;;;;;;;21.30;13.18;;;4.90;94.50;;;;;;5043151;28;20029;-77
2021/12/11 06:41:12;;;;;;;18.50;12.00;;;5.00;94.50;;;;;;5034976;28;20040;-76
2021/12/11 06:43:39;;;;;;;19.02;12.07;;;5.00;94.50;;;;;;5036589;28;20041;-76
2021/12/11 06:46:05;;;;;;;18.98;12.45;;;5.10;94.50;;;;;;5052796;28;20032;-77
2021/12/11 06:48:31;;;;;;;18.85;13.20;;;5.10;94.40;;;;;;5036062;28;20075;-77
2021/12/11 06:50:58;;;;;;;21.30;13.10;;;5.10;94.40;;;;;;5050098;28;20017;-78
2021/12/11 06:53:47;;;;;;;22.60;13.18;;;5.10;94.50;;;;;;5047011;28;20036;-77
2021/12/11 06:56:16;;;;;;;19.02;13.02;;;5.10;94.50;;;;;;5025071;28;20401;-78
2021/12/11 06:58:42;;;;;;;19.67;13.25;;;5.10;94.60;;;;;;5050987;28;20032;-77
2021/12/11 07:01:09;;;;;;;19.38;13.40;;;5.10;94.70;;;;;;5045484;28;20048;-78
2021/12/11 07:03:36;;;;;;;21.58;13.02;;;5.10;94.80;;;;;;5051832;28;20150;-77
2021/12/11 07:06:03;;;;;;;20.38;13.68;;;5.10;94.90;;;;;;5039454;28;20040;-77
2021/12/11 07:08:29;;;;;;;21.35;14.90;;;5.10;94.90;;;;;;5040715;28;20370;-78
2021/12/11 07:10:57;;;;;;;24.48;14.65;;;5.10;95.10;;;;;;5053500;28;20044;-78
2021/12/11 07:13:23;;;;;;;22.17;14.45;;;5.10;95.10;;;;;;5041037;28;20388;-77
2021/12/11 07:15:48;;;;;;;19.92;13.73;;;5.10;95.10;;;;;;5035028;28;20113;-77
2021/12/11 07:18:14;;;;;;;21.92;14.45;;;5.10;95.10;;;;;;5048329;28;20364;-77
2021/12/11 07:20:39;;;;;;;21.15;14.38;;;5.20;95.10;;;;;;5052595;28;20872;-77
2021/12/11 07:23:05;;;;;;;25.60;15.30;;;5.20;95.10;;;;;;5051636;28;20080;-78
2021/12/11 07:25:43;;;;;;;24.48;14.82;;;5.20;95.20;;;;;;5037140;28;20037;-78
2021/12/11 07:28:11;;;;;;;22.17;15.32;;;5.20;95.60;;;;;;5035117;28;20033;-80
2021/12/11 07:30:39;;;;;;;23.65;15.82;;;5.20;95.30;;;;;;5053376;28;20035;-79
2021/12/11 07:33:06;;;;;;;24.00;15.10;;;5.10;95.40;;;;;;5041448;28;20053;-79
2021/12/11 07:35:34;;;;;;;25.70;16.33;;;5.20;95.50;;;;;;5048394;28;20021;-78
2021/12/11 07:38:00;;;;;;;23.88;15.20;;;5.20;95.50;;;;;;5058039;28;20055;-77
2021/12/11 07:40:31;;;;;;;23.73;15.98;;;5.20;95.40;;;;;;5037908;28;20100;-79
2021/12/11 07:42:56;;;;;;;24.65;15.10;;;5.20;95.40;;;;;;5047981;28;20438;-77
2021/12/11 07:45:24;;;;;;;25.55;16.40;;;5.20;95.50;;;;;;5041386;28;20029;-79
2021/12/11 07:47:50;;;;;;;29.50;16.65;;;5.30;95.50;;;;;;5039574;28;20048;-80
2021/12/11 07:50:16;;;;;;;26.23;16.27;;;5.20;95.50;;;;;;5044457;28;20029;-81
2021/12/11 07:52:42;;;;;;;27.10;16.33;;;5.20;95.60;;;;;;5034900;28;20033;-82
2021/12/11 07:55:09;;;;;;;26.67;16.02;;;5.10;95.60;;;;;;5034568;28;20052;-79
2021/12/11 07:57:37;;;;;;;26.77;15.77;;;5.10;95.70;;;;;;5049420;28;20119;-80
2021/12/11 08:00:10;;;;;;;23.88;15.48;;;5.10;95.80;;;;;;5033205;28;20172;-80
2021/12/11 08:02:36;;;;;;;25.08;15.55;;;5.00;95.80;;;;;;5040005;28;20045;-79
2021/12/11 08:05:04;;;;;;;26.77;17.10;;;5.10;95.90;;;;;;5045349;28;20048;-79
2021/12/11 08:07:30;;;;;;;27.67;17.10;;;5.00;95.80;;;;;;5048757;28;20109;-78
2021/12/11 08:09:56;;;;;;;27.40;16.27;;;4.80;96.00;;;;;;5044497;28;20440;-78
2021/12/11 08:12:22;;;;;;;26.98;17.02;;;4.70;96.40;;;;;;5041517;28;20141;-76
2021/12/11 08:14:49;;;;;;;25.33;16.63;;;4.70;96.40;;;;;;5052618;28;20028;-77
2021/12/11 08:17:16;;;;;;;25.02;15.77;;;4.60;96.50;;;;;;5045853;28;20515;-79
2021/12/11 08:19:42;;;;;;;27.70;17.10;;;4.70;96.50;;;;;;5037827;28;20060;-76
2021/12/11 08:22:08;;;;;;;28.60;16.10;;;4.70;96.40;;;;;;5043334;28;20037;-78
2021/12/11 08:24:35;;;;;;;28.02;16.42;;;4.80;96.40;;;;;;5055993;28;20377;-78
2021/12/11 08:27:11;;;;;;;26.83;15.98;;;4.80;96.40;;;;;;5052209;28;20435;-80
2021/12/11 08:29:37;;;;;;;26.50;17.00;;;4.90;96.30;;;;;;5049465;28;20026;-79
2021/12/11 08:32:03;;;;;;;27.40;16.55;;;4.90;96.40;;;;;;5054870;28;20100;-79
2021/12/11 08:34:30;;;;;;;27.50;14.13;;;4.80;96.50;;;;;;5050316;28;20033;-79
2021/12/11 08:36:57;;;;;;;32.53;18.23;;;4.80;96.90;;;;;;5047817;28;20025;-78
2021/12/11 08:39:23;;;;;;;25.88;16.23;;;4.90;97.10;;;;;;5036575;28;20447;-78
2021/12/11 08:41:52;;;;;;;25.73;15.93;;;5.00;97.10;;;;;;5036951;28;20044;-76
2021/12/11 08:44:18;;;;;;;32.72;19.70;;;5.00;97.30;;;;;;5036915;28;20036;-78
2021/12/11 08:46:49;;;;;;;35.10;19.52;;;5.10;97.00;;;;;;5039172;28;20033;-80
2021/12/11 08:49:23;;;;;;;32.90;19.13;;;5.10;96.70;;;;;;5036633;28;20030;-77
2021/12/11 08:51:57;;;;;;;34.75;19.42;;;5.10;96.70;;;;;;5039439;28;20556;-78
2021/12/11 08:54:26;;;;;;;27.02;15.98;;;5.10;96.70;;;;;;5036637;28;20040;-78
2021/12/11 08:56:54;;;;;;;25.17;16.55;;;5.20;96.90;;;;;;5037277;28;20416;-79
2021/12/11 08:59:22;;;;;;;28.23;18.73;;;5.40;96.90;;;;;;5043178;28;20033;-79
2021/12/11 09:01:48;;;;;;;29.33;17.33;;;5.40;96.90;;;;;;5039699;28;20033;-76
2021/12/11 09:04:21;;;;;;;28.42;17.25;;;5.60;96.80;;;;;;5035869;28;20032;-75
2021/12/11 09:07:15;;;;;;;30.60;18.10;;;5.70;96.70;;;;;;5054405;28;20079;-77
2021/12/11 09:09:58;;;;;;;26.67;17.17;;;5.80;96.40;;;;;;5047006;28;20029;-76
2021/12/11 09:12:32;;;;;;;24.88;14.82;;;5.80;96.20;;;;;;5043317;28;20049;-79
2021/12/11 09:15:05;;;;;;;25.48;17.17;;;5.90;96.10;;;;;;5037513;28;20040;-79
2021/12/11 09:17:59;;;;;;;29.58;19.08;;;5.90;96.20;;;;;;5035294;28;20523;-80
2021/12/11 09:20:25;;;;;;;24.73;14.93;;;6.00;96.10;;;;;;5033874;28;20061;-79
2021/12/11 09:23:03;;;;;;;27.08;17.10;;;6.00;96.30;;;;;;5040909;28;20067;-77
2021/12/11 09:26:01;;;;;;;26.25;16.25;;;6.10;96.40;;;;;;5037421;28;20024;-79
2021/12/11 09:28:36;;;;;;;23.80;16.20;;;6.20;96.30;;;;;;5038331;28;20033;-78
2021/12/11 09:31:19;;;;;;;20.48;14.82;;;6.20;96.10;;;;;;5042988;28;20021;-75
2021/12/11 09:33:55;;;;;;;;;;;6.20;96.10;;;;;;5038053;28;20018;-76
2021/12/11 09:36:30;;;;;;;25.20;16.98;;;6.30;96.20;;;;;;5037501;28;20277;-76
2021/12/11 09:39:04;;;;;;;29.40;19.60;;;6.30;96.00;;;;;;5038016;28;20030;-76
2021/12/11 09:41:30;;;;;;;25.70;17.50;;;6.20;95.90;;;;;;5037992;28;20029;-78
2021/12/11 09:44:16;;;;;;;21.98;15.57;;;6.20;96.20;;;;;;5054652;28;20111;-80
2021/12/11 09:46:47;;;;;;;26.90;17.63;;;6.20;96.40;;;;;;5051976;28;20048;-79
2021/12/11 09:49:18;;;;;;;25.67;17.83;;;6.30;96.60;;;;;;5036223;28;20033;-78
2021/12/11 09:51:46;;;;;;;26.30;18.50;;;6.40;96.50;;;;;;5037506;28;20068;-78
2021/12/11 09:54:19;;;;;;;21.50;14.80;;;6.40;96.30;;;;;;5054995;28;20495;-78
2021/12/11 09:56:57;;;;;;;26.90;18.08;;;6.50;96.20;;;;;;5038777;28;20033;-79
2021/12/11 09:59:26;;;;;;;25.05;17.60;;;6.50;96.20;;;;;;5052907;28;20025;-78
2021/12/11 10:01:56;;;;;;;25.95;17.52;;;6.50;96.10;;;;;;5047516;28;20087;-79
2021/12/11 10:04:33;;;;;;;31.30;19.92;;;6.50;96.10;;;;;;5048197;28;20078;-78
2021/12/11 10:09:42;;;;;;;28.55;18.77;;;6.60;95.90;;;;;;5040607;28;20033;-78
2021/12/11 10:12:21;;;;;;;27.90;18.25;;;6.60;96.00;;;;;;5036190;28;20215;-79
2021/12/11 10:14:52;;;;;;;29.25;18.90;;;6.70;96.00;;;;;;5046535;28;20090;-78
2021/12/11 10:17:23;;;;;;;28.00;18.83;;;6.70;95.90;;;;;;5042261;28;20025;-78
2021/12/11 10:19:51;;;;;;;26.33;18.02;;;6.80;95.80;;;;;;5043285;28;20025;-78
2021/12/11 10:22:20;;;;;;;23.48;16.00;;;6.70;95.80;;;;;;5035411;28;20041;-78
2021/12/11 10:24:47;;;;;;;25.65;17.58;;;6.80;95.80;;;;;;5036287;28;20024;-78
2021/12/11 10:27:16;;;;;;;25.58;17.20;;;6.80;95.80;;;;;;5040447;28;20029;-76
2021/12/11 10:29:42;;;;;;;25.48;17.98;;;6.80;95.70;;;;;;5027710;28;20030;-78
2021/12/11 10:32:14;;;;;;;26.98;17.52;;;6.80;95.60;;;;;;5026977;28;20527;-79
2021/12/11 10:34:43;;;;;;;26.33;18.10;;;6.80;95.60;;;;;;5023996;28;20025;-78
2021/12/11 10:37:28;;;;;;;22.55;15.35;;;6.80;95.80;;;;;;5020956;28;20557;-77
2021/12/11 10:39:58;;;;;;;45.72;17.83;;;6.90;95.90;;;;;;5032344;28;20451;-78
2021/12/11 10:42:24;;;;;;;34.38;17.45;;;6.90;95.80;;;;;;5031933;28;20160;-77
2021/12/11 10:44:52;;;;;;;37.58;17.58;;;6.80;96.00;;;;;;5034210;28;20026;-79
2021/12/11 10:47:22;;;;;;;25.15;16.05;;;6.80;96.20;;;;;;5022468;28;20025;-83
2021/12/11 10:49:50;;;;;;;31.63;19.35;;;6.90;96.70;;;;;;5033428;28;20112;-81
2021/12/11 10:52:23;;;;;;;27.25;16.02;;;7.00;96.50;;;;;;5039693;28;20025;-80
2021/12/11 10:54:52;;;;;;;41.47;16.95;;;7.00;96.60;;;;;;5054148;28;20421;-87
2021/12/11 10:57:19;;;;;;;87.90;17.15;;;7.00;96.70;;;;;;5047715;28;20041;-77
2021/12/11 10:59:50;;;;;;;27.38;16.48;;;7.00;96.40;;;;;;5042012;28;20380;-82
2021/12/11 11:02:21;;;;;;;31.17;15.70;;;6.90;96.00;;;;;;5035303;28;20133;-78
2021/12/11 11:04:51;;;;;;;31.98;15.75;;;6.90;96.40;;;;;;5042189;28;20384;-77
2021/12/11 11:07:17;;;;;;;26.25;16.85;;;6.80;96.30;;;;;;5050389;28;20041;-77
2021/12/11 11:09:43;;;;;;;26.23;16.92;;;6.80;96.50;;;;;;5041138;28;20074;-77
2021/12/11 11:12:13;;;;;;;83.95;17.23;;;6.80;96.60;;;;;;5039829;28;20041;-77
2021/12/11 11:14:40;;;;;;;37.33;16.33;;;6.80;96.60;;;;;;5041463;28;20081;-77
2021/12/11 11:17:13;;;;;;;25.35;15.93;;;6.80;96.50;;;;;;5044853;28;20020;-77
2021/12/11 11:19:40;;;;;;;26.88;14.50;;;6.80;96.60;;;;;;5046983;28;20033;-77
2021/12/11 11:22:10;;;;;;;28.00;16.70;;;6.80;96.60;;;;;;5050801;28;20037;-77
2021/12/11 11:24:40;;;;;;;34.85;17.55;;;6.80;96.80;;;;;;5056620;28;20025;-75
2021/12/11 11:27:07;;;;;;;23.73;17.05;;;6.70;96.70;;;;;;5052821;28;20025;-77
2021/12/11 11:29:35;;;;;;;38.28;17.10;;;6.70;96.80;;;;;;5040838;28;20021;-78
2021/12/11 11:32:06;;;;;;;22.05;14.68;;;6.60;96.90;;;;;;5053252;28;20083;-78
2021/12/11 11:34:32;;;;;;;24.77;15.90;;;6.60;96.90;;;;;;5052472;28;20105;-78
2021/12/11 11:37:02;;;;;;;35.38;15.32;;;6.60;97.00;;;;;;5034406;28;20108;-77
2021/12/11 11:39:29;;;;;;;38.63;15.70;;;6.70;97.10;;;;;;5044233;28;20025;-78
2021/12/11 11:42:03;;;;;;;37.00;17.20;;;6.80;97.00;;;;;;5046082;28;20029;-78
2021/12/11 11:44:30;;;;;;;23.85;15.80;;;6.80;96.90;;;;;;5029256;28;20029;-78
2021/12/11 11:46:59;;;;;;;23.45;15.50;;;6.80;96.90;;;;;;5032391;28;20049;-76
2021/12/11 11:49:26;;;;;;;20.95;14.45;;;6.90;96.90;;;;;;5041359;28;20025;-77
2021/12/11 11:51:57;;;;;;;82.63;15.60;;;6.90;96.90;;;;;;5049639;28;20061;-77
2021/12/11 11:54:25;;;;;;;58.20;14.48;;;7.00;96.70;;;;;;5056978;28;20036;-77
2021/12/11 11:57:13;;;;;;;20.75;12.50;;;7.00;96.50;;;;;;5053017;28;20025;-77
2021/12/11 11:59:40;;;;;;;25.42;13.63;;;7.10;96.50;;;;;;5025618;28;20029;-78
2021/12/11 12:02:10;;;;;;;30.10;14.88;;;7.10;96.60;;;;;;5045834;28;20049;-77
2021/12/11 12:04:37;;;;;;;19.40;13.65;;;7.20;96.70;;;;;;5038578;28;20030;-77
2021/12/11 12:07:05;;;;;;;24.88;14.30;;;7.20;96.50;;;;;;5045104;28;20393;-77
2021/12/11 12:09:35;;;;;;;32.25;15.88;;;7.20;96.60;;;;;;5049277;28;20025;-77
2021/12/11 12:12:02;;;;;;;48.45;16.85;;;7.30;96.50;;;;;;5042174;28;20056;-77
2021/12/11 12:14:31;;;;;;;53.83;16.50;;;7.30;96.30;;;;;;5043708;28;20060;-77
2021/12/11 12:16:58;;;;;;;27.20;15.45;;;7.20;96.10;;;;;;5050554;28;20025;-77
2021/12/11 12:19:25;;;;;;;32.67;16.35;;;7.20;96.10;;;;;;5039037;28;20118;-76
2021/12/11 12:21:54;;;;;;;30.27;15.57;;;7.20;96.10;;;;;;5043599;28;20415;-76
2021/12/11 12:24:23;;;;;;;26.75;13.85;;;7.20;96.10;;;;;;5055180;28;20021;-77
2021/12/11 12:26:50;;;;;;;49.58;15.02;;;7.20;96.20;;;;;;5055744;28;20079;-77
2021/12/11 12:29:18;;;;;;;28.52;14.80;;;7.20;96.20;;;;;;5038010;28;20040;-77
2021/12/11 12:31:56;;;;;;;38.42;15.80;;;7.20;96.30;;;;;;5037700;28;20510;-77
2021/12/11 12:34:22;;;;;;;26.73;14.15;;;7.20;96.20;;;;;;5055869;28;20041;-77
2021/12/11 12:36:49;;;;;;;34.80;13.82;;;7.20;96.20;;;;;;5053450;28;20048;-77
2021/12/11 12:39:17;;;;;;;78.43;18.40;;;7.10;96.20;;;;;;5038999;28;20033;-76
2021/12/11 12:41:58;;;;;;;32.58;15.85;;;7.10;96.30;;;;;;5037979;28;20042;-77
2021/12/11 12:44:25;;;;;;;21.52;15.00;;;7.10;96.40;;;;;;5037934;28;20095;-77
2021/12/11 12:47:05;;;;;;;20.42;14.13;;;7.10;96.50;;;;;;5039888;28;20033;-78
2021/12/11 12:49:34;;;;;;;32.90;16.67;;;7.20;96.60;;;;;;5045428;28;20034;-78
2021/12/11 12:52:08;;;;;;;32.25;16.90;;;7.30;96.70;;;;;;5039187;28;20035;-78
2021/12/11 12:54:33;;;;;;;30.95;17.52;;;7.30;96.60;;;;;;5052647;28;20032;-78
2021/12/11 12:57:17;;;;;;;24.95;16.73;;;7.30;96.60;;;;;;5051231;28;20025;-78
2021/12/11 12:59:58;;;;;;;37.38;20.50;;;7.40;96.60;;;;;;5037806;28;20631;-78
2021/12/11 13:02:26;;;;;;;41.42;23.02;;;7.40;96.60;;;;;;5046410;28;20047;-78
2021/12/11 13:04:56;;;;;;;31.10;19.80;;;7.50;96.60;;;;;;5049537;28;20423;-77
2021/12/11 13:07:22;;;;;;;43.38;20.73;;;7.50;96.50;;;;;;5039215;28;20040;-78
2021/12/11 13:09:58;;;;;;;41.58;20.80;;;7.50;96.50;;;;;;5043140;28;20021;-78
2021/12/11 13:12:31;;;;;;;42.17;20.20;;;7.50;96.40;;;;;;5037554;28;20320;-78
2021/12/11 13:15:04;;;;;;;42.22;20.33;;;7.50;96.40;;;;;;5047669;28;20464;-78
2021/12/11 13:17:35;;;;;;;38.65;19.00;;;7.50;96.30;;;;;;5054218;28;20128;-77
2021/12/11 13:20:10;;;;;;;32.40;20.33;;;7.50;96.30;;;;;;5052611;28;20026;-77
2021/12/11 13:22:39;;;;;;;27.17;17.23;;;7.50;96.20;;;;;;5047198;28;20029;-78